sensor_id;sensor_type;location;lat;lon;timestamp;P1;durP1;ratioP1;P2;durP2;ratioP2
24337;SDS011;12457;50.832;4.346;2024-03-08T00:00:15;27.73;;;16.25;;
24337;SDS011;12457;50.832;4.346;2024-03-08T00:02:43;30.13;;;16.70;;
24337;SDS011;12457;50.832;4.346;2024-03-08T00:05:10;31.73;;;16.60;;
24337;SDS011;12457;50.832;4.346;2024-03-08T00:07:36;31.70;;;17.00;;
24337;SDS011;12457;50.832;4.346;2024-03-08T00:10:08;29.63;;;16.58;;
24337;SDS011;12457;50.832;4.346;2024-03-08T00:12:39;33.85;;;17.80;;
24337;SDS011;12457;50.832;4.346;2024-03-08T00:15:09;31.98;;;17.00;;
24337;SDS011;12457;50.832;4.346;2024-03-08T00:17:43;28.23;;;16.33;;
24337;SDS011;12457;50.832;4.346;2024-03-08T00:20:10;28.67;;;16.27;;
24337;SDS011;12457;50.832;4.346;2024-03-08T00:22:39;29.73;;;16.38;;
24337;SDS011;12457;50.832;4.346;2024-03-08T00:25:05;36.95;;;17.42;;
24337;SDS011;12457;50.832;4.346;2024-03-08T00:27:33;32.45;;;17.67;;
24337;SDS011;12457;50.832;4.346;2024-03-08T00:29:59;33.28;;;16.88;;
24337;SDS011;12457;50.832;4.346;2024-03-08T00:32:26;34.55;;;18.25;;
24337;SDS011;12457;50.832;4.346;2024-03-08T00:34:52;31.75;;;16.50;;
24337;SDS011;12457;50.832;4.346;2024-03-08T00:37:19;28.83;;;16.80;;
24337;SDS011;12457;50.832;4.346;2024-03-08T00:39:49;31.73;;;16.75;;
24337;SDS011;12457;50.832;4.346;2024-03-08T00:42:16;28.85;;;15.73;;
24337;SDS011;12457;50.832;4.346;2024-03-08T00:44:43;30.35;;;17.55;;
24337;SDS011;12457;50.832;4.346;2024-03-08T00:47:08;32.20;;;17.38;;
24337;SDS011;12457;50.832;4.346;2024-03-08T00:49:34;31.90;;;17.52;;
24337;SDS011;12457;50.832;4.346;2024-03-08T00:52:03;31.27;;;16.85;;
24337;SDS011;12457;50.832;4.346;2024-03-08T00:54:31;31.27;;;17.45;;
24337;SDS011;12457;50.832;4.346;2024-03-08T00:56:57;36.00;;;18.25;;
24337;SDS011;12457;50.832;4.346;2024-03-08T00:59:22;29.77;;;16.35;;
24337;SDS011;12457;50.832;4.346;2024-03-08T01:01:48;29.60;;;16.33;;
24337;SDS011;12457;50.832;4.346;2024-03-08T01:04:14;30.33;;;17.15;;
24337;SDS011;12457;50.832;4.346;2024-03-08T01:06:39;32.97;;;18.35;;
24337;SDS011;12457;50.832;4.346;2024-03-08T01:09:05;35.20;;;18.05;;
24337;SDS011;12457;50.832;4.346;2024-03-08T01:11:34;36.88;;;18.15;;
24337;SDS011;12457;50.832;4.346;2024-03-08T01:14:00;31.33;;;18.00;;
24337;SDS011;12457;50.832;4.346;2024-03-08T01:16:26;32.70;;;17.05;;
24337;SDS011;12457;50.832;4.346;2024-03-08T01:18:52;34.65;;;18.33;;
24337;SDS011;12457;50.832;4.346;2024-03-08T01:21:17;32.13;;;17.83;;
24337;SDS011;12457;50.832;4.346;2024-03-08T01:23:43;31.08;;;18.33;;
24337;SDS011;12457;50.832;4.346;2024-03-08T01:26:09;32.10;;;17.42;;
24337;SDS011;12457;50.832;4.346;2024-03-08T01:28:35;34.22;;;17.77;;
24337;SDS011;12457;50.832;4.346;2024-03-08T01:31:00;37.90;;;18.77;;
24337;SDS011;12457;50.832;4.346;2024-03-08T01:33:28;30.40;;;16.65;;
24337;SDS011;12457;50.832;4.346;2024-03-08T01:35:55;31.80;;;18.40;;
24337;SDS011;12457;50.832;4.346;2024-03-08T01:38:22;29.67;;;16.58;;
24337;SDS011;12457;50.832;4.346;2024-03-08T01:40:48;40.53;;;20.00;;
24337;SDS011;12457;50.832;4.346;2024-03-08T01:45:48;30.92;;;18.58;;
24337;SDS011;12457;50.832;4.346;2024-03-08T01:48:14;33.65;;;18.65;;
24337;SDS011;12457;50.832;4.346;2024-03-08T01:50:42;31.83;;;18.45;;
24337;SDS011;12457;50.832;4.346;2024-03-08T01:53:08;36.45;;;19.23;;
24337;SDS011;12457;50.832;4.346;2024-03-08T01:55:37;37.22;;;20.02;;
24337;SDS011;12457;50.832;4.346;2024-03-08T01:58:04;34.72;;;18.73;;
24337;SDS011;12457;50.832;4.346;2024-03-08T02:00:31;32.25;;;19.13;;
24337;SDS011;12457;50.832;4.346;2024-03-08T02:05:47;34.33;;;19.58;;
24337;SDS011;12457;50.832;4.346;2024-03-08T02:08:13;39.90;;;21.60;;
24337;SDS011;12457;50.832;4.346;2024-03-08T02:10:48;37.08;;;19.67;;
24337;SDS011;12457;50.832;4.346;2024-03-08T02:13:14;37.97;;;19.98;;
24337;SDS011;12457;50.832;4.346;2024-03-08T02:15:53;37.38;;;20.63;;
24337;SDS011;12457;50.832;4.346;2024-03-08T02:18:21;35.85;;;19.73;;
24337;SDS011;12457;50.832;4.346;2024-03-08T02:20:51;38.95;;;20.52;;
24337;SDS011;12457;50.832;4.346;2024-03-08T02:23:18;34.58;;;20.85;;
24337;SDS011;12457;50.832;4.346;2024-03-08T02:25:45;39.20;;;20.85;;
24337;SDS011;12457;50.832;4.346;2024-03-08T02:28:11;31.95;;;19.67;;
24337;SDS011;12457;50.832;4.346;2024-03-08T02:30:38;35.17;;;21.27;;
24337;SDS011;12457;50.832;4.346;2024-03-08T02:33:09;34.47;;;20.52;;
24337;SDS011;12457;50.832;4.346;2024-03-08T02:35:35;38.63;;;21.77;;
24337;SDS011;12457;50.832;4.346;2024-03-08T02:38:01;43.47;;;21.38;;
24337;SDS011;12457;50.832;4.346;2024-03-08T02:40:29;35.50;;;20.92;;
24337;SDS011;12457;50.832;4.346;2024-03-08T02:42:54;39.20;;;21.42;;
24337;SDS011;12457;50.832;4.346;2024-03-08T02:45:20;33.33;;;20.70;;
24337;SDS011;12457;50.832;4.346;2024-03-08T02:47:46;38.42;;;21.17;;
24337;SDS011;12457;50.832;4.346;2024-03-08T02:50:14;35.08;;;21.08;;
24337;SDS011;12457;50.832;4.346;2024-03-08T02:52:41;37.90;;;21.42;;
24337;SDS011;12457;50.832;4.346;2024-03-08T02:55:11;35.35;;;21.75;;
24337;SDS011;12457;50.832;4.346;2024-03-08T02:57:40;34.08;;;21.00;;
24337;SDS011;12457;50.832;4.346;2024-03-08T03:00:06;35.55;;;22.52;;
24337;SDS011;12457;50.832;4.346;2024-03-08T03:02:35;34.92;;;21.55;;
24337;SDS011;12457;50.832;4.346;2024-03-08T03:05:03;37.53;;;22.50;;
24337;SDS011;12457;50.832;4.346;2024-03-08T03:07:34;38.05;;;22.95;;
24337;SDS011;12457;50.832;4.346;2024-03-08T03:10:00;35.53;;;22.63;;
24337;SDS011;12457;50.832;4.346;2024-03-08T03:12:29;41.85;;;22.48;;
24337;SDS011;12457;50.832;4.346;2024-03-08T03:14:56;38.35;;;21.55;;
24337;SDS011;12457;50.832;4.346;2024-03-08T03:17:22;34.42;;;23.13;;
24337;SDS011;12457;50.832;4.346;2024-03-08T03:19:49;33.28;;;22.35;;
24337;SDS011;12457;50.832;4.346;2024-03-08T03:22:16;34.75;;;21.08;;
24337;SDS011;12457;50.832;4.346;2024-03-08T03:24:43;38.45;;;23.17;;
24337;SDS011;12457;50.832;4.346;2024-03-08T03:27:09;36.80;;;22.92;;
24337;SDS011;12457;50.832;4.346;2024-03-08T03:29:41;39.53;;;23.65;;
24337;SDS011;12457;50.832;4.346;2024-03-08T03:32:10;39.45;;;22.73;;
24337;SDS011;12457;50.832;4.346;2024-03-08T03:34:37;36.80;;;23.00;;
24337;SDS011;12457;50.832;4.346;2024-03-08T03:37:03;41.33;;;24.08;;
24337;SDS011;12457;50.832;4.346;2024-03-08T03:39:29;35.58;;;22.55;;
24337;SDS011;12457;50.832;4.346;2024-03-08T03:42:13;37.95;;;22.67;;
24337;SDS011;12457;50.832;4.346;2024-03-08T03:44:43;36.22;;;22.95;;
24337;SDS011;12457;50.832;4.346;2024-03-08T03:47:10;36.10;;;22.80;;
24337;SDS011;12457;50.832;4.346;2024-03-08T03:49:36;33.70;;;23.42;;
24337;SDS011;12457;50.832;4.346;2024-03-08T03:52:02;38.35;;;24.55;;
24337;SDS011;12457;50.832;4.346;2024-03-08T03:54:29;39.67;;;25.52;;
24337;SDS011;12457;50.832;4.346;2024-03-08T03:56:56;36.92;;;23.30;;
24337;SDS011;12457;50.832;4.346;2024-03-08T03:59:22;38.58;;;24.20;;
24337;SDS011;12457;50.832;4.346;2024-03-08T04:01:47;37.08;;;23.33;;
24337;SDS011;12457;50.832;4.346;2024-03-08T04:04:14;38.35;;;24.17;;
24337;SDS011;12457;50.832;4.346;2024-03-08T04:06:42;40.50;;;24.10;;
24337;SDS011;12457;50.832;4.346;2024-03-08T04:09:09;39.65;;;24.23;;
24337;SDS011;12457;50.832;4.346;2024-03-08T04:11:34;40.33;;;25.27;;
24337;SDS011;12457;50.832;4.346;2024-03-08T04:14:00;34.97;;;23.88;;
24337;SDS011;12457;50.832;4.346;2024-03-08T04:16:26;36.85;;;22.75;;
24337;SDS011;12457;50.832;4.346;2024-03-08T04:21:49;41.08;;;23.55;;
24337;SDS011;12457;50.832;4.346;2024-03-08T04:24:15;39.83;;;25.75;;
24337;SDS011;12457;50.832;4.346;2024-03-08T04:26:42;36.92;;;23.73;;
24337;SDS011;12457;50.832;4.346;2024-03-08T04:29:08;41.03;;;24.20;;
24337;SDS011;12457;50.832;4.346;2024-03-08T04:31:33;38.13;;;24.17;;
24337;SDS011;12457;50.832;4.346;2024-03-08T04:34:01;39.55;;;25.20;;
24337;SDS011;12457;50.832;4.346;2024-03-08T04:36:26;39.97;;;25.33;;
24337;SDS011;12457;50.832;4.346;2024-03-08T04:38:53;38.10;;;24.52;;
24337;SDS011;12457;50.832;4.346;2024-03-08T04:41:19;41.28;;;25.98;;
24337;SDS011;12457;50.832;4.346;2024-03-08T04:43:46;38.35;;;24.52;;
24337;SDS011;12457;50.832;4.346;2024-03-08T04:46:11;34.92;;;24.50;;
24337;SDS011;12457;50.832;4.346;2024-03-08T04:48:39;39.22;;;23.77;;
24337;SDS011;12457;50.832;4.346;2024-03-08T04:51:06;41.10;;;24.77;;
24337;SDS011;12457;50.832;4.346;2024-03-08T04:53:32;41.08;;;25.45;;
24337;SDS011;12457;50.832;4.346;2024-03-08T04:55:59;42.38;;;26.05;;
24337;SDS011;12457;50.832;4.346;2024-03-08T04:58:25;45.55;;;25.13;;
24337;SDS011;12457;50.832;4.346;2024-03-08T05:00:50;35.83;;;23.95;;
24337;SDS011;12457;50.832;4.346;2024-03-08T05:03:16;38.33;;;24.15;;
24337;SDS011;12457;50.832;4.346;2024-03-08T05:05:45;44.97;;;26.23;;
24337;SDS011;12457;50.832;4.346;2024-03-08T05:08:11;38.65;;;25.13;;
24337;SDS011;12457;50.832;4.346;2024-03-08T05:10:36;39.53;;;26.15;;
24337;SDS011;12457;50.832;4.346;2024-03-08T05:13:02;38.60;;;23.90;;
24337;SDS011;12457;50.832;4.346;2024-03-08T05:15:28;44.17;;;24.25;;
24337;SDS011;12457;50.832;4.346;2024-03-08T05:17:53;34.50;;;23.60;;
24337;SDS011;12457;50.832;4.346;2024-03-08T05:20:21;42.10;;;25.73;;
24337;SDS011;12457;50.832;4.346;2024-03-08T05:22:47;39.50;;;25.92;;
24337;SDS011;12457;50.832;4.346;2024-03-08T05:25:12;37.80;;;24.55;;
24337;SDS011;12457;50.832;4.346;2024-03-08T05:27:39;44.85;;;25.38;;
24337;SDS011;12457;50.832;4.346;2024-03-08T05:30:05;38.90;;;24.70;;
24337;SDS011;12457;50.832;4.346;2024-03-08T05:32:31;39.53;;;24.63;;
24337;SDS011;12457;50.832;4.346;2024-03-08T05:34:57;43.10;;;24.63;;
24337;SDS011;12457;50.832;4.346;2024-03-08T05:37:23;38.63;;;24.10;;
24337;SDS011;12457;50.832;4.346;2024-03-08T05:39:48;43.05;;;24.80;;
24337;SDS011;12457;50.832;4.346;2024-03-08T05:42:14;41.58;;;24.65;;
24337;SDS011;12457;50.832;4.346;2024-03-08T05:44:40;38.53;;;24.63;;
24337;SDS011;12457;50.832;4.346;2024-03-08T05:47:05;42.00;;;25.17;;
24337;SDS011;12457;50.832;4.346;2024-03-08T05:49:33;41.33;;;25.02;;
24337;SDS011;12457;50.832;4.346;2024-03-08T05:51:59;39.92;;;24.80;;
24337;SDS011;12457;50.832;4.346;2024-03-08T05:54:25;44.25;;;25.27;;
24337;SDS011;12457;50.832;4.346;2024-03-08T05:56:52;44.17;;;26.00;;
24337;SDS011;12457;50.832;4.346;2024-03-08T05:59:18;39.72;;;24.45;;
24337;SDS011;12457;50.832;4.346;2024-03-08T06:01:43;41.10;;;24.63;;
24337;SDS011;12457;50.832;4.346;2024-03-08T06:04:11;40.53;;;25.88;;
24337;SDS011;12457;50.832;4.346;2024-03-08T06:06:38;41.17;;;24.95;;
24337;SDS011;12457;50.832;4.346;2024-03-08T06:09:04;40.75;;;25.73;;
24337;SDS011;12457;50.832;4.346;2024-03-08T06:11:42;44.53;;;26.20;;
24337;SDS011;12457;50.832;4.346;2024-03-08T06:14:08;46.83;;;25.27;;
24337;SDS011;12457;50.832;4.346;2024-03-08T06:16:33;38.28;;;23.38;;
24337;SDS011;12457;50.832;4.346;2024-03-08T06:19:01;42.47;;;24.63;;
24337;SDS011;12457;50.832;4.346;2024-03-08T06:21:27;43.67;;;24.60;;
24337;SDS011;12457;50.832;4.346;2024-03-08T06:23:53;42.08;;;25.25;;
24337;SDS011;12457;50.832;4.346;2024-03-08T06:26:22;39.22;;;24.83;;
24337;SDS011;12457;50.832;4.346;2024-03-08T06:28:49;38.22;;;23.65;;
24337;SDS011;12457;50.832;4.346;2024-03-08T06:31:16;41.80;;;24.75;;
24337;SDS011;12457;50.832;4.346;2024-03-08T06:33:41;44.25;;;25.35;;
24337;SDS011;12457;50.832;4.346;2024-03-08T06:39:07;40.35;;;25.20;;
24337;SDS011;12457;50.832;4.346;2024-03-08T06:41:38;40.97;;;24.52;;
24337;SDS011;12457;50.832;4.346;2024-03-08T06:44:04;44.22;;;23.92;;
24337;SDS011;12457;50.832;4.346;2024-03-08T06:46:30;46.45;;;23.52;;
24337;SDS011;12457;50.832;4.346;2024-03-08T06:48:55;40.90;;;25.15;;
24337;SDS011;12457;50.832;4.346;2024-03-08T06:51:21;36.50;;;22.48;;
24337;SDS011;12457;50.832;4.346;2024-03-08T06:53:47;34.47;;;21.92;;
24337;SDS011;12457;50.832;4.346;2024-03-08T06:56:14;41.03;;;24.65;;
24337;SDS011;12457;50.832;4.346;2024-03-08T06:58:40;40.85;;;23.58;;
24337;SDS011;12457;50.832;4.346;2024-03-08T07:01:07;47.67;;;25.77;;
24337;SDS011;12457;50.832;4.346;2024-03-08T07:03:38;39.67;;;24.35;;
24337;SDS011;12457;50.832;4.346;2024-03-08T07:06:09;41.63;;;24.42;;
24337;SDS011;12457;50.832;4.346;2024-03-08T07:08:35;38.33;;;23.70;;
24337;SDS011;12457;50.832;4.346;2024-03-08T07:11:01;42.95;;;23.88;;
24337;SDS011;12457;50.832;4.346;2024-03-08T07:13:28;40.00;;;26.10;;
24337;SDS011;12457;50.832;4.346;2024-03-08T07:15:54;38.08;;;23.45;;
24337;SDS011;12457;50.832;4.346;2024-03-08T07:18:20;46.53;;;23.70;;
24337;SDS011;12457;50.832;4.346;2024-03-08T07:20:47;42.53;;;24.90;;
24337;SDS011;12457;50.832;4.346;2024-03-08T07:23:14;42.13;;;23.83;;
24337;SDS011;12457;50.832;4.346;2024-03-08T07:25:59;37.55;;;23.67;;
24337;SDS011;12457;50.832;4.346;2024-03-08T07:28:26;38.90;;;24.13;;
24337;SDS011;12457;50.832;4.346;2024-03-08T07:30:52;41.75;;;22.35;;
24337;SDS011;12457;50.832;4.346;2024-03-08T07:33:26;35.38;;;22.50;;
24337;SDS011;12457;50.832;4.346;2024-03-08T07:35:52;35.45;;;22.75;;
24337;SDS011;12457;50.832;4.346;2024-03-08T07:38:18;39.28;;;23.27;;
24337;SDS011;12457;50.832;4.346;2024-03-08T07:40:46;41.47;;;23.27;;
24337;SDS011;12457;50.832;4.346;2024-03-08T07:43:13;37.00;;;22.35;;
24337;SDS011;12457;50.832;4.346;2024-03-08T07:45:39;46.85;;;23.15;;
24337;SDS011;12457;50.832;4.346;2024-03-08T07:48:06;36.55;;;21.92;;
24337;SDS011;12457;50.832;4.346;2024-03-08T07:50:37;41.17;;;23.73;;
24337;SDS011;12457;50.832;4.346;2024-03-08T07:53:04;40.53;;;22.67;;
24337;SDS011;12457;50.832;4.346;2024-03-08T07:55:32;37.15;;;22.27;;
24337;SDS011;12457;50.832;4.346;2024-03-08T07:58:00;37.53;;;22.92;;
24337;SDS011;12457;50.832;4.346;2024-03-08T08:00:26;41.10;;;22.45;;
24337;SDS011;12457;50.832;4.346;2024-03-08T08:02:53;36.95;;;20.85;;
24337;SDS011;12457;50.832;4.346;2024-03-08T08:05:34;37.53;;;21.60;;
24337;SDS011;12457;50.832;4.346;2024-03-08T08:08:03;37.38;;;21.10;;
24337;SDS011;12457;50.832;4.346;2024-03-08T08:10:33;35.22;;;21.92;;
24337;SDS011;12457;50.832;4.346;2024-03-08T08:12:58;43.33;;;22.10;;
24337;SDS011;12457;50.832;4.346;2024-03-08T08:15:24;40.00;;;22.73;;
24337;SDS011;12457;50.832;4.346;2024-03-08T08:17:50;36.20;;;20.77;;
24337;SDS011;12457;50.832;4.346;2024-03-08T08:23:10;37.80;;;21.10;;
24337;SDS011;12457;50.832;4.346;2024-03-08T08:25:37;38.50;;;22.02;;
24337;SDS011;12457;50.832;4.346;2024-03-08T08:28:03;33.83;;;19.58;;
24337;SDS011;12457;50.832;4.346;2024-03-08T08:30:29;32.00;;;20.10;;
24337;SDS011;12457;50.832;4.346;2024-03-08T08:32:54;36.78;;;18.85;;
24337;SDS011;12457;50.832;4.346;2024-03-08T08:35:23;31.45;;;19.05;;
24337;SDS011;12457;50.832;4.346;2024-03-08T08:37:49;33.92;;;21.25;;
24337;SDS011;12457;50.832;4.346;2024-03-08T08:40:15;34.55;;;19.33;;
24337;SDS011;12457;50.832;4.346;2024-03-08T08:42:43;38.05;;;20.27;;
24337;SDS011;12457;50.832;4.346;2024-03-08T08:45:10;32.00;;;19.90;;
24337;SDS011;12457;50.832;4.346;2024-03-08T08:47:36;33.65;;;20.33;;
24337;SDS011;12457;50.832;4.346;2024-03-08T08:50:02;34.58;;;20.67;;
24337;SDS011;12457;50.832;4.346;2024-03-08T08:52:49;33.22;;;20.42;;
24337;SDS011;12457;50.832;4.346;2024-03-08T08:55:15;33.05;;;19.52;;
24337;SDS011;12457;50.832;4.346;2024-03-08T08:57:45;33.17;;;19.38;;
24337;SDS011;12457;50.832;4.346;2024-03-08T09:00:12;36.92;;;20.38;;
24337;SDS011;12457;50.832;4.346;2024-03-08T09:02:41;31.63;;;19.35;;
24337;SDS011;12457;50.832;4.346;2024-03-08T09:05:07;31.25;;;18.38;;
24337;SDS011;12457;50.832;4.346;2024-03-08T09:07:33;32.30;;;19.27;;
24337;SDS011;12457;50.832;4.346;2024-03-08T09:10:02;35.13;;;19.88;;
24337;SDS011;12457;50.832;4.346;2024-03-08T09:12:28;33.83;;;19.45;;
24337;SDS011;12457;50.832;4.346;2024-03-08T09:14:54;30.50;;;17.92;;
24337;SDS011;12457;50.832;4.346;2024-03-08T09:17:20;33.88;;;18.40;;
24337;SDS011;12457;50.832;4.346;2024-03-08T09:19:49;30.90;;;16.98;;
24337;SDS011;12457;50.832;4.346;2024-03-08T09:22:24;38.95;;;19.52;;
24337;SDS011;12457;50.832;4.346;2024-03-08T09:24:50;34.42;;;18.75;;
24337;SDS011;12457;50.832;4.346;2024-03-08T09:27:15;32.00;;;18.88;;
24337;SDS011;12457;50.832;4.346;2024-03-08T09:29:43;34.83;;;18.08;;
24337;SDS011;12457;50.832;4.346;2024-03-08T09:32:09;30.30;;;18.23;;
24337;SDS011;12457;50.832;4.346;2024-03-08T09:34:36;30.50;;;17.77;;
24337;SDS011;12457;50.832;4.346;2024-03-08T09:37:11;28.85;;;17.98;;
24337;SDS011;12457;50.832;4.346;2024-03-08T09:39:37;30.00;;;17.52;;
24337;SDS011;12457;50.832;4.346;2024-03-08T09:42:03;35.47;;;18.50;;
24337;SDS011;12457;50.832;4.346;2024-03-08T09:44:31;28.45;;;17.98;;
24337;SDS011;12457;50.832;4.346;2024-03-08T09:46:57;28.33;;;16.58;;
24337;SDS011;12457;50.832;4.346;2024-03-08T09:49:24;31.27;;;18.45;;
24337;SDS011;12457;50.832;4.346;2024-03-08T09:51:50;28.98;;;16.83;;
24337;SDS011;12457;50.832;4.346;2024-03-08T09:54:17;28.83;;;17.73;;
24337;SDS011;12457;50.832;4.346;2024-03-08T09:56:45;26.92;;;15.65;;
24337;SDS011;12457;50.832;4.346;2024-03-08T09:59:13;27.75;;;16.50;;
24337;SDS011;12457;50.832;4.346;2024-03-08T10:01:48;29.13;;;16.73;;
24337;SDS011;12457;50.832;4.346;2024-03-08T10:04:14;29.33;;;17.38;;
24337;SDS011;12457;50.832;4.346;2024-03-08T10:06:41;27.20;;;16.45;;
24337;SDS011;12457;50.832;4.346;2024-03-08T10:09:06;26.27;;;16.48;;
24337;SDS011;12457;50.832;4.346;2024-03-08T10:11:33;25.42;;;17.00;;
24337;SDS011;12457;50.832;4.346;2024-03-08T10:14:00;33.47;;;18.35;;
24337;SDS011;12457;50.832;4.346;2024-03-08T10:16:29;26.45;;;17.77;;
24337;SDS011;12457;50.832;4.346;2024-03-08T10:18:58;26.23;;;16.70;;
24337;SDS011;12457;50.832;4.346;2024-03-08T10:21:25;29.00;;;16.88;;
24337;SDS011;12457;50.832;4.346;2024-03-08T10:23:52;29.20;;;16.73;;
24337;SDS011;12457;50.832;4.346;2024-03-08T10:26:18;30.63;;;16.38;;
24337;SDS011;12457;50.832;4.346;2024-03-08T10:28:51;26.15;;;16.58;;
24337;SDS011;12457;50.832;4.346;2024-03-08T10:31:18;28.02;;;17.25;;
24337;SDS011;12457;50.832;4.346;2024-03-08T10:33:48;26.02;;;16.60;;
24337;SDS011;12457;50.832;4.346;2024-03-08T10:36:16;31.48;;;16.95;;
24337;SDS011;12457;50.832;4.346;2024-03-08T10:38:45;26.63;;;16.52;;
24337;SDS011;12457;50.832;4.346;2024-03-08T10:41:16;28.33;;;16.98;;
24337;SDS011;12457;50.832;4.346;2024-03-08T10:47:00;23.90;;;15.75;;
24337;SDS011;12457;50.832;4.346;2024-03-08T10:49:42;30.65;;;17.40;;
24337;SDS011;12457;50.832;4.346;2024-03-08T10:52:20;26.38;;;16.35;;
24337;SDS011;12457;50.832;4.346;2024-03-08T10:54:47;27.02;;;17.63;;
24337;SDS011;12457;50.832;4.346;2024-03-08T10:57:14;29.27;;;16.83;;
24337;SDS011;12457;50.832;4.346;2024-03-08T10:59:45;30.20;;;17.13;;
24337;SDS011;12457;50.832;4.346;2024-03-08T11:02:14;25.80;;;16.17;;
24337;SDS011;12457;50.832;4.346;2024-03-08T11:04:48;32.55;;;16.13;;
24337;SDS011;12457;50.832;4.346;2024-03-08T11:07:33;26.87;;;16.10;;
24337;SDS011;12457;50.832;4.346;2024-03-08T11:10:02;26.40;;;16.02;;
24337;SDS011;12457;50.832;4.346;2024-03-08T11:12:37;29.05;;;17.00;;
24337;SDS011;12457;50.832;4.346;2024-03-08T11:15:12;26.55;;;16.13;;
24337;SDS011;12457;50.832;4.346;2024-03-08T11:17:44;25.92;;;15.27;;
24337;SDS011;12457;50.832;4.346;2024-03-08T11:20:18;26.02;;;16.65;;
24337;SDS011;12457;50.832;4.346;2024-03-08T11:22:54;28.50;;;16.10;;
24337;SDS011;12457;50.832;4.346;2024-03-08T11:25:38;27.85;;;16.17;;
24337;SDS011;12457;50.832;4.346;2024-03-08T11:28:17;24.33;;;15.18;;
24337;SDS011;12457;50.832;4.346;2024-03-08T11:33:28;25.02;;;16.58;;
24337;SDS011;12457;50.832;4.346;2024-03-08T11:38:43;26.75;;;16.15;;
24337;SDS011;12457;50.832;4.346;2024-03-08T11:41:09;25.77;;;16.17;;
24337;SDS011;12457;50.832;4.346;2024-03-08T11:43:39;23.50;;;15.98;;
24337;SDS011;12457;50.832;4.346;2024-03-08T11:46:09;23.17;;;16.05;;
24337;SDS011;12457;50.832;4.346;2024-03-08T11:48:39;25.60;;;15.75;;
24337;SDS011;12457;50.832;4.346;2024-03-08T11:51:12;26.75;;;16.83;;
24337;SDS011;12457;50.832;4.346;2024-03-08T11:53:42;25.58;;;15.60;;
24337;SDS011;12457;50.832;4.346;2024-03-08T11:56:08;24.73;;;15.38;;
24337;SDS011;12457;50.832;4.346;2024-03-08T11:58:36;27.92;;;15.98;;
24337;SDS011;12457;50.832;4.346;2024-03-08T12:01:09;22.80;;;14.85;;
24337;SDS011;12457;50.832;4.346;2024-03-08T12:03:38;22.52;;;14.65;;
24337;SDS011;12457;50.832;4.346;2024-03-08T12:06:10;28.20;;;16.65;;
24337;SDS011;12457;50.832;4.346;2024-03-08T12:08:47;25.27;;;15.32;;
24337;SDS011;12457;50.832;4.346;2024-03-08T12:11:19;25.70;;;15.15;;
24337;SDS011;12457;50.832;4.346;2024-03-08T12:13:49;25.70;;;14.98;;
24337;SDS011;12457;50.832;4.346;2024-03-08T12:16:17;28.38;;;15.95;;
24337;SDS011;12457;50.832;4.346;2024-03-08T12:18:50;26.63;;;15.48;;
24337;SDS011;12457;50.832;4.346;2024-03-08T12:21:18;26.63;;;15.02;;
24337;SDS011;12457;50.832;4.346;2024-03-08T12:26:46;22.92;;;14.30;;
24337;SDS011;12457;50.832;4.346;2024-03-08T12:29:25;26.10;;;14.65;;
24337;SDS011;12457;50.832;4.346;2024-03-08T12:31:53;23.83;;;15.50;;
24337;SDS011;12457;50.832;4.346;2024-03-08T12:34:20;25.10;;;14.50;;
24337;SDS011;12457;50.832;4.346;2024-03-08T12:36:47;23.98;;;15.27;;
24337;SDS011;12457;50.832;4.346;2024-03-08T12:39:18;23.55;;;15.05;;
24337;SDS011;12457;50.832;4.346;2024-03-08T12:41:51;26.95;;;14.57;;
24337;SDS011;12457;50.832;4.346;2024-03-08T12:44:22;26.88;;;15.88;;
24337;SDS011;12457;50.832;4.346;2024-03-08T12:46:48;24.05;;;14.75;;
24337;SDS011;12457;50.832;4.346;2024-03-08T12:49:14;26.40;;;15.27;;
24337;SDS011;12457;50.832;4.346;2024-03-08T12:51:46;23.70;;;14.75;;
24337;SDS011;12457;50.832;4.346;2024-03-08T12:54:12;26.58;;;14.98;;
24337;SDS011;12457;50.832;4.346;2024-03-08T12:56:37;26.13;;;16.35;;
24337;SDS011;12457;50.832;4.346;2024-03-08T12:59:04;43.72;;;15.73;;
24337;SDS011;12457;50.832;4.346;2024-03-08T13:01:32;19.52;;;14.00;;
24337;SDS011;12457;50.832;4.346;2024-03-08T13:04:04;23.05;;;14.65;;
24337;SDS011;12457;50.832;4.346;2024-03-08T13:06:32;23.67;;;14.23;;
24337;SDS011;12457;50.832;4.346;2024-03-08T13:09:01;29.55;;;14.15;;
24337;SDS011;12457;50.832;4.346;2024-03-08T13:11:30;21.83;;;14.43;;
24337;SDS011;12457;50.832;4.346;2024-03-08T13:14:03;20.05;;;13.85;;
24337;SDS011;12457;50.832;4.346;2024-03-08T13:16:32;27.63;;;15.40;;
24337;SDS011;12457;50.832;4.346;2024-03-08T13:19:02;21.05;;;13.43;;
24337;SDS011;12457;50.832;4.346;2024-03-08T13:21:28;28.60;;;15.27;;
24337;SDS011;12457;50.832;4.346;2024-03-08T13:26:41;21.70;;;13.35;;
24337;SDS011;12457;50.832;4.346;2024-03-08T13:29:09;22.42;;;13.82;;
24337;SDS011;12457;50.832;4.346;2024-03-08T13:31:34;22.05;;;13.85;;
24337;SDS011;12457;50.832;4.346;2024-03-08T13:34:01;24.60;;;14.25;;
24337;SDS011;12457;50.832;4.346;2024-03-08T13:36:28;22.95;;;13.90;;
24337;SDS011;12457;50.832;4.346;2024-03-08T13:39:04;24.00;;;13.50;;
24337;SDS011;12457;50.832;4.346;2024-03-08T13:41:46;21.02;;;12.80;;
24337;SDS011;12457;50.832;4.346;2024-03-08T13:44:18;21.33;;;13.40;;
24337;SDS011;12457;50.832;4.346;2024-03-08T13:46:43;22.95;;;13.88;;
24337;SDS011;12457;50.832;4.346;2024-03-08T13:49:16;24.58;;;13.40;;
24337;SDS011;12457;50.832;4.346;2024-03-08T13:51:45;24.08;;;13.10;;
24337;SDS011;12457;50.832;4.346;2024-03-08T13:54:11;23.63;;;12.90;;
24337;SDS011;12457;50.832;4.346;2024-03-08T13:56:37;21.80;;;13.73;;
24337;SDS011;12457;50.832;4.346;2024-03-08T13:59:02;20.00;;;12.90;;
24337;SDS011;12457;50.832;4.346;2024-03-08T14:01:29;22.63;;;13.00;;
24337;SDS011;12457;50.832;4.346;2024-03-08T14:04:00;24.83;;;14.20;;
24337;SDS011;12457;50.832;4.346;2024-03-08T14:06:27;24.90;;;13.82;;
24337;SDS011;12457;50.832;4.346;2024-03-08T14:08:53;20.10;;;13.25;;
24337;SDS011;12457;50.832;4.346;2024-03-08T14:11:22;21.30;;;12.90;;
24337;SDS011;12457;50.832;4.346;2024-03-08T14:13:49;21.40;;;13.10;;
24337;SDS011;12457;50.832;4.346;2024-03-08T14:16:14;19.60;;;12.70;;
24337;SDS011;12457;50.832;4.346;2024-03-08T14:18:40;20.40;;;12.55;;
24337;SDS011;12457;50.832;4.346;2024-03-08T14:21:07;20.83;;;12.48;;
24337;SDS011;12457;50.832;4.346;2024-03-08T14:23:35;23.58;;;13.70;;
24337;SDS011;12457;50.832;4.346;2024-03-08T14:26:02;26.08;;;13.60;;
24337;SDS011;12457;50.832;4.346;2024-03-08T14:28:32;20.35;;;13.68;;
24337;SDS011;12457;50.832;4.346;2024-03-08T14:30:57;21.77;;;12.65;;
24337;SDS011;12457;50.832;4.346;2024-03-08T14:33:23;20.35;;;12.88;;
24337;SDS011;12457;50.832;4.346;2024-03-08T14:35:53;22.88;;;13.20;;
24337;SDS011;12457;50.832;4.346;2024-03-08T14:38:19;20.52;;;12.68;;
24337;SDS011;12457;50.832;4.346;2024-03-08T14:41:02;19.55;;;12.38;;
24337;SDS011;12457;50.832;4.346;2024-03-08T14:43:44;23.35;;;12.35;;
24337;SDS011;12457;50.832;4.346;2024-03-08T14:46:18;18.35;;;12.43;;
24337;SDS011;12457;50.832;4.346;2024-03-08T14:48:46;22.13;;;12.77;;
24337;SDS011;12457;50.832;4.346;2024-03-08T14:51:12;18.23;;;12.07;;
24337;SDS011;12457;50.832;4.346;2024-03-08T14:56:48;28.48;;;12.85;;